Time;durP1;ratioP1;P1;durP2;ratioP2;P2;SDS_P1;SDS_P2;PMS_P1;PMS_P2;Temp;Humidity;BMP_temperature;BMP_pressure;BME280_temperature;BME280_humidity;BME280_pressure;Samples;Min_cycle;Max_cycle;Signal;HPM_P1;HPM_P2
2023/04/28 00:01:27;;;;;;;14.68;7.80;;;9.10;99.90;;;;;;4648132;28;10000046;-71
2023/04/28 00:03:54;;;;;;;12.57;7.90;;;9.10;99.90;;;;;;4999720;28;20021;-71
2023/04/28 00:06:19;;;;;;;11.35;7.35;;;9.10;99.90;;;;;;4994767;28;20101;-72
2023/04/28 00:08:45;;;;;;;12.65;7.05;;;9.00;99.90;;;;;;4994943;28;20465;-72
2023/04/28 00:11:10;;;;;;;14.40;7.80;;;8.90;99.90;;;;;;5000699;28;20065;-72
2023/04/28 00:13:37;;;;;;;10.35;7.40;;;8.90;99.90;;;;;;4997863;28;20037;-71
2023/04/28 00:16:03;;;;;;;11.27;6.88;;;8.90;99.90;;;;;;5005935;28;20034;-71
2023/04/28 00:18:29;;;;;;;13.70;7.20;;;8.90;99.90;;;;;;5003491;28;20029;-71
2023/04/28 00:20:55;;;;;;;13.85;7.45;;;8.90;99.90;;;;;;5004450;28;20032;-72
2023/04/28 00:23:21;;;;;;;11.95;6.75;;;8.90;99.90;;;;;;4997564;28;20029;-70
2023/04/28 00:25:53;;;;;;;13.10;7.47;;;8.90;99.90;;;;;;5004678;28;20398;-69
2023/04/28 00:28:19;;;;;;;12.57;7.35;;;8.90;99.90;;;;;;5003970;28;20422;-70
2023/04/28 00:30:46;;;;;;;13.57;7.68;;;8.90;99.90;;;;;;4995993;28;20117;-72
2023/04/28 00:33:12;;;;;;;11.98;7.63;;;9.00;99.90;;;;;;5001590;28;20028;-71
2023/04/28 00:35:38;;;;;;;15.57;7.75;;;9.00;99.90;;;;;;5003554;28;20033;-71
2023/04/28 00:38:04;;;;;;;12.90;7.70;;;9.10;99.90;;;;;;4995060;28;20410;-71
2023/04/28 00:40:37;;;;;;;13.18;7.45;;;9.10;99.90;;;;;;5003535;28;20027;-71
2023/04/28 00:43:04;;;;;;;14.45;7.30;;;9.10;99.90;;;;;;5002027;28;20149;-72
2023/04/28 00:45:30;;;;;;;11.85;7.53;;;9.20;99.90;;;;;;5013766;28;20107;-71
2023/04/28 00:47:56;;;;;;;12.77;7.53;;;9.10;99.90;;;;;;5001250;28;20670;-72
2023/04/28 00:50:23;;;;;;;15.27;7.95;;;9.10;99.90;;;;;;4998923;28;20049;-71
2023/04/28 00:52:50;;;;;;;13.90;7.93;;;9.10;99.90;;;;;;5001594;28;20045;-72
2023/04/28 00:55:15;;;;;;;17.98;8.05;;;9.10;99.90;;;;;;5008448;28;20029;-71
2023/04/28 00:57:42;;;;;;;16.23;7.55;;;9.10;99.90;;;;;;5003874;28;20580;-71
2023/04/28 01:00:08;;;;;;;11.63;7.68;;;9.10;99.90;;;;;;4995515;28;20437;-72
2023/04/28 01:02:37;;;;;;;12.63;7.72;;;9.10;99.90;;;;;;5002375;28;20033;-71
2023/04/28 01:05:04;;;;;;;11.95;7.43;;;9.10;99.90;;;;;;5000839;28;20026;-72
2023/04/28 01:07:30;;;;;;;13.30;7.88;;;9.10;99.90;;;;;;4992615;28;20170;-71
2023/04/28 01:09:55;;;;;;;13.23;7.40;;;9.10;99.90;;;;;;4995573;28;20049;-72
2023/04/28 01:12:22;;;;;;;12.45;8.02;;;9.20;99.90;;;;;;5004797;28;20052;-72
2023/04/28 01:14:50;;;;;;;15.23;8.02;;;9.10;99.90;;;;;;5007270;28;20032;-71
2023/04/28 01:17:17;;;;;;;12.75;8.10;;;9.10;99.90;;;;;;5007056;28;20029;-72
2023/04/28 01:19:42;;;;;;;14.65;7.95;;;9.10;99.90;;;;;;5007923;28;20033;-71
2023/04/28 01:22:12;;;;;;;12.93;7.68;;;9.10;99.90;;;;;;5003463;28;20044;-71
2023/04/28 01:24:38;;;;;;;12.70;7.20;;;9.10;99.90;;;;;;4995133;28;20494;-71
2023/04/28 01:27:04;;;;;;;13.35;8.00;;;9.00;99.90;;;;;;4998663;28;20022;-72
2023/04/28 01:29:29;;;;;;;13.20;8.07;;;9.00;99.90;;;;;;5005562;28;20034;-71
2023/04/28 01:31:55;;;;;;;13.10;7.97;;;9.10;99.90;;;;;;4998050;28;20062;-70
2023/04/28 01:34:20;;;;;;;12.43;7.40;;;9.10;99.90;;;;;;4992645;28;20031;-71
2023/04/28 01:36:46;;;;;;;15.18;8.10;;;9.10;99.90;;;;;;4997730;28;20502;-71
2023/04/28 01:39:11;;;;;;;13.27;7.90;;;9.10;99.90;;;;;;5006076;28;20030;-70
2023/04/28 01:41:37;;;;;;;11.32;7.43;;;9.10;99.90;;;;;;4997113;28;20104;-71
2023/04/28 01:44:05;;;;;;;14.38;7.82;;;9.10;99.90;;;;;;4994998;28;20029;-71
2023/04/28 01:46:30;;;;;;;16.88;7.88;;;9.10;99.90;;;;;;4995382;28;20046;-71
2023/04/28 01:48:56;;;;;;;11.35;7.30;;;9.10;99.90;;;;;;5005088;28;20525;-71
2023/04/28 01:51:21;;;;;;;11.60;7.63;;;9.10;99.90;;;;;;5002972;28;20034;-72
2023/04/28 01:53:47;;;;;;;12.85;7.32;;;9.10;99.90;;;;;;4998513;28;20085;-72
2023/04/28 01:56:12;;;;;;;14.70;7.90;;;9.10;99.90;;;;;;5000004;28;20478;-71
2023/04/28 01:58:38;;;;;;;16.85;8.77;;;9.10;99.90;;;;;;4998464;28;20023;-71
2023/04/28 02:01:04;;;;;;;13.93;7.80;;;9.10;99.90;;;;;;4996833;28;20017;-71
2023/04/28 02:03:29;;;;;;;15.50;8.15;;;9.10;99.90;;;;;;5007751;28;20056;-71
2023/04/28 02:05:55;;;;;;;14.80;7.93;;;9.10;99.90;;;;;;5005648;28;20034;-71
2023/04/28 02:08:21;;;;;;;10.95;6.88;;;9.00;99.90;;;;;;4995540;28;20439;-72
2023/04/28 02:10:46;;;;;;;9.90;7.57;;;9.00;99.90;;;;;;4998177;28;20029;-71
2023/04/28 02:13:12;;;;;;;14.68;7.80;;;8.90;99.90;;;;;;5000804;28;20040;-72
2023/04/28 02:15:41;;;;;;;12.20;7.88;;;8.90;99.90;;;;;;5002856;28;20530;-72
2023/04/28 02:18:07;;;;;;;14.55;7.85;;;8.90;99.90;;;;;;5007511;28;20433;-72
2023/04/28 02:20:33;;;;;;;14.73;8.75;;;8.90;99.90;;;;;;5003194;28;20101;-71
2023/04/28 02:22:58;;;;;;;16.33;8.52;;;8.90;99.90;;;;;;5004636;28;20112;-72
2023/04/28 02:25:24;;;;;;;12.88;7.72;;;8.90;99.90;;;;;;5007025;28;20371;-72
2023/04/28 02:27:50;;;;;;;12.93;8.38;;;8.90;99.90;;;;;;5003970;28;20108;-72
2023/04/28 02:30:15;;;;;;;12.25;7.97;;;8.90;99.90;;;;;;5009509;28;20030;-72
2023/04/28 02:32:41;;;;;;;15.73;8.00;;;8.90;99.90;;;;;;5002968;28;20033;-72
2023/04/28 02:35:07;;;;;;;12.40;7.55;;;8.90;99.90;;;;;;5005699;28;20025;-72
2023/04/28 02:37:32;;;;;;;11.13;7.70;;;8.90;99.90;;;;;;4999520;28;20030;-71
2023/04/28 02:39:58;;;;;;;11.25;6.90;;;8.80;99.90;;;;;;5006869;28;20061;-71
2023/04/28 02:42:24;;;;;;;9.52;7.40;;;8.80;99.90;;;;;;5000196;28;20092;-72
2023/04/28 02:44:49;;;;;;;10.63;7.35;;;8.80;99.90;;;;;;4997278;28;20402;-71
2023/04/28 02:47:15;;;;;;;12.93;8.38;;;8.70;99.90;;;;;;5000546;28;20046;-71
2023/04/28 02:49:40;;;;;;;11.82;7.45;;;8.70;99.90;;;;;;4993935;28;20026;-71
2023/04/28 02:52:06;;;;;;;12.45;7.60;;;8.70;99.90;;;;;;5002144;28;20042;-71
2023/04/28 02:54:33;;;;;;;13.93;8.35;;;8.70;99.90;;;;;;5004482;28;20026;-71
2023/04/28 02:56:58;;;;;;;12.98;8.30;;;8.60;99.90;;;;;;5005978;28;20440;-71
2023/04/28 02:59:25;;;;;;;12.55;8.10;;;8.60;99.90;;;;;;4996116;28;20038;-71
2023/04/28 03:01:51;;;;;;;16.45;8.55;;;8.70;99.90;;;;;;4999141;28;20037;-71
2023/04/28 03:04:17;;;;;;;12.10;8.10;;;8.70;99.90;;;;;;5000455;28;20030;-71
2023/04/28 03:06:42;;;;;;;15.43;8.68;;;8.70;99.90;;;;;;5004817;28;20032;-71
2023/04/28 03:09:09;;;;;;;16.63;8.38;;;8.70;99.90;;;;;;4994404;28;20030;-71
2023/04/28 03:11:35;;;;;;;13.45;7.68;;;8.70;99.90;;;;;;5005072;28;20226;-71
2023/04/28 03:14:01;;;;;;;17.02;9.05;;;8.70;99.90;;;;;;5006728;28;20508;-71
2023/04/28 03:16:26;;;;;;;12.55;7.72;;;8.70;99.90;;;;;;4991410;28;20034;-71
2023/04/28 03:18:52;;;;;;;14.05;8.60;;;8.70;99.90;;;;;;5001208;28;20125;-72
2023/04/28 03:21:17;;;;;;;11.75;8.13;;;8.70;99.90;;;;;;4992180;28;20061;-72
2023/04/28 03:23:43;;;;;;;14.57;9.32;;;8.70;99.90;;;;;;4993867;28;20022;-71
2023/04/28 03:26:09;;;;;;;12.52;8.68;;;8.60;99.90;;;;;;4995603;28;20030;-71
2023/04/28 03:28:34;;;;;;;13.73;8.65;;;8.60;99.90;;;;;;4998910;28;20482;-71
2023/04/28 03:31:01;;;;;;;12.35;8.25;;;8.60;99.90;;;;;;5009894;28;20034;-71
2023/04/28 03:33:27;;;;;;;15.48;9.15;;;8.50;99.90;;;;;;5003219;28;20034;-71
2023/04/28 03:35:53;;;;;;;15.98;9.68;;;8.50;99.90;;;;;;5005214;28;20038;-71
2023/04/28 03:38:19;;;;;;;19.33;10.02;;;8.50;99.90;;;;;;4998485;28;20390;-71
2023/04/28 03:40:44;;;;;;;22.08;11.02;;;8.40;99.90;;;;;;5008625;28;20029;-71
2023/04/28 03:43:10;;;;;;;17.88;11.23;;;8.40;99.90;;;;;;5000717;28;20030;-71
2023/04/28 03:45:36;;;;;;;19.23;12.07;;;8.40;99.90;;;;;;5007644;28;20125;-70
2023/04/28 03:48:01;;;;;;;21.25;11.10;;;8.30;99.90;;;;;;5008401;28;20033;-70
2023/04/28 03:50:27;;;;;;;16.73;10.65;;;8.30;99.90;;;;;;5006343;28;20032;-70
2023/04/28 03:52:53;;;;;;;21.00;12.10;;;8.30;99.90;;;;;;5007043;28;20053;-70
2023/04/28 03:55:18;;;;;;;18.65;11.60;;;8.30;99.90;;;;;;5006759;28;20030;-70
2023/04/28 03:57:44;;;;;;;18.75;11.32;;;8.30;99.90;;;;;;5000152;28;20511;-70
2023/04/28 04:00:10;;;;;;;17.67;11.60;;;8.30;99.90;;;;;;5001770;28;20175;-70
2023/04/28 04:02:36;;;;;;;18.77;12.30;;;8.30;99.90;;;;;;4996913;28;20030;-70
2023/04/28 04:05:01;;;;;;;20.70;12.98;;;8.20;99.90;;;;;;5002570;28;20394;-70
2023/04/28 04:07:27;;;;;;;22.25;12.88;;;8.10;99.90;;;;;;5009846;28;20018;-70
2023/04/28 04:09:53;;;;;;;18.38;11.73;;;8.10;99.90;;;;;;4998447;28;20069;-70
2023/04/28 04:12:18;;;;;;;21.15;12.52;;;8.00;99.90;;;;;;4998784;28;20114;-70
2023/04/28 04:14:44;;;;;;;19.35;12.07;;;8.00;99.90;;;;;;5007241;28;20041;-70
2023/04/28 04:17:53;;;;;;;15.73;11.93;;;8.00;99.90;;;;;;5009243;28;20033;-70
2023/04/28 04:20:19;;;;;;;22.08;12.98;;;8.00;99.90;;;;;;4997047;28;20498;-70
2023/04/28 04:22:45;;;;;;;20.60;12.73;;;8.00;99.90;;;;;;4998430;28;20084;-70
2023/04/28 04:25:10;;;;;;;20.13;13.40;;;7.90;99.90;;;;;;4997905;28;20022;-70
2023/04/28 04:27:36;;;;;;;18.58;12.38;;;8.00;99.90;;;;;;5007285;28;20018;-70
2023/04/28 04:30:01;;;;;;;18.92;12.52;;;8.00;99.90;;;;;;5008499;28;20156;-70
2023/04/28 04:32:27;;;;;;;21.55;13.30;;;8.00;99.90;;;;;;5004030;28;20030;-70
2023/04/28 04:34:52;;;;;;;18.83;12.63;;;8.00;99.90;;;;;;5002400;28;20035;-71
2023/04/28 04:37:18;;;;;;;19.45;12.65;;;8.10;99.90;;;;;;5006767;28;20432;-71
2023/04/28 04:39:44;;;;;;;21.98;12.73;;;8.00;99.90;;;;;;5009226;28;20040;-71
2023/04/28 04:42:09;;;;;;;18.85;12.90;;;8.10;99.90;;;;;;4998736;28;20034;-71
2023/04/28 04:44:35;;;;;;;18.90;12.38;;;8.10;99.90;;;;;;4996870;28;20394;-71
2023/04/28 04:47:01;;;;;;;21.15;12.20;;;8.10;99.90;;;;;;4995024;28;20884;-71
2023/04/28 04:49:26;;;;;;;19.50;12.55;;;8.10;99.90;;;;;;4995933;28;20038;-71
2023/04/28 04:51:52;;;;;;;18.58;12.93;;;8.10;99.90;;;;;;5006798;28;20026;-71
2023/04/28 04:54:18;;;;;;;18.85;12.65;;;8.10;99.90;;;;;;4995945;28;20500;-71
2023/04/28 04:56:43;;;;;;;18.38;13.07;;;8.20;99.90;;;;;;4992553;28;20034;-72
2023/04/28 04:59:09;;;;;;;18.13;12.50;;;8.20;99.90;;;;;;5003772;28;20549;-71
2023/04/28 05:01:34;;;;;;;17.63;12.40;;;8.20;99.90;;;;;;5001399;28;20022;-71
2023/04/28 05:04:00;;;;;;;23.23;12.32;;;8.20;99.90;;;;;;5002224;28;20638;-71
2023/04/28 05:06:26;;;;;;;17.63;12.75;;;8.20;99.90;;;;;;4995471;28;20030;-72
2023/04/28 05:08:51;;;;;;;19.48;13.70;;;8.20;99.90;;;;;;5006840;28;20474;-72
2023/04/28 05:11:17;;;;;;;18.42;13.18;;;8.20;99.90;;;;;;4998673;28;20029;-71
2023/04/28 05:13:43;;;;;;;21.20;13.80;;;8.20;99.90;;;;;;4992907;28;20092;-71
2023/04/28 05:16:09;;;;;;;19.52;13.45;;;8.20;99.90;;;;;;5007022;28;20030;-71
2023/04/28 05:18:35;;;;;;;25.20;14.35;;;8.20;99.90;;;;;;5003106;28;20026;-71
2023/04/28 05:21:00;;;;;;;23.85;13.98;;;8.20;99.90;;;;;;4996915;28;20101;-71
2023/04/28 05:23:26;;;;;;;24.42;14.63;;;8.20;99.90;;;;;;5004414;28;20116;-70
2023/04/28 05:25:52;;;;;;;19.23;13.73;;;8.20;99.90;;;;;;5004941;28;20406;-70
2023/04/28 05:28:17;;;;;;;23.95;14.10;;;8.20;99.90;;;;;;4997852;28;21343;-71
2023/04/28 05:30:43;;;;;;;22.60;13.85;;;8.20;99.90;;;;;;5003080;28;20068;-70
2023/04/28 05:33:09;;;;;;;26.60;14.60;;;8.20;99.90;;;;;;5004849;28;20042;-70
2023/04/28 05:35:35;;;;;;;26.48;14.63;;;8.30;99.90;;;;;;5004253;28;20364;-71
2023/04/28 05:38:00;;;;;;;20.42;13.60;;;8.30;99.90;;;;;;5005885;28;20117;-71
2023/04/28 05:40:27;;;;;;;24.23;14.02;;;8.20;99.90;;;;;;5003015;28;20049;-71
2023/04/28 05:42:53;;;;;;;22.33;13.77;;;8.20;99.90;;;;;;5005260;28;20018;-71
2023/04/28 05:45:19;;;;;;;23.38;14.90;;;8.20;99.90;;;;;;4999332;28;20040;-71
2023/04/28 05:47:45;;;;;;;23.73;14.65;;;8.20;99.90;;;;;;5007420;28;20050;-71
2023/04/28 05:50:10;;;;;;;22.88;13.75;;;8.20;99.90;;;;;;4999611;28;20029;-71
2023/04/28 05:52:36;;;;;;;25.30;14.82;;;8.30;99.90;;;;;;5006217;28;20478;-71
2023/04/28 05:55:02;;;;;;;24.10;14.55;;;8.30;99.90;;;;;;5000431;28;20026;-71
2023/04/28 05:57:28;;;;;;;22.98;14.38;;;8.20;99.90;;;;;;5002592;28;20099;-71
2023/04/28 05:59:54;;;;;;;23.88;14.65;;;8.30;99.90;;;;;;4998538;28;20038;-71
2023/04/28 06:02:19;;;;;;;23.08;14.38;;;8.30;99.90;;;;;;5004917;28;20137;-71
2023/04/28 06:04:45;;;;;;;24.95;14.80;;;8.30;99.90;;;;;;5003277;28;20108;-71
2023/04/28 06:07:11;;;;;;;21.92;14.55;;;8.40;99.90;;;;;;4995468;28;20112;-71
2023/04/28 06:09:36;;;;;;;25.50;14.73;;;8.40;99.90;;;;;;5008406;28;20026;-72
2023/04/28 06:12:02;;;;;;;25.35;15.00;;;8.40;99.90;;;;;;5002453;28;20072;-72
2023/04/28 06:14:28;;;;;;;26.92;14.90;;;8.50;99.90;;;;;;5004412;28;20052;-72
2023/04/28 06:16:54;;;;;;;23.05;14.65;;;8.50;99.90;;;;;;5001344;28;20038;-72
2023/04/28 06:19:19;;;;;;;22.88;14.02;;;8.60;99.90;;;;;;4999277;28;20120;-72
2023/04/28 06:21:45;;;;;;;20.80;13.77;;;8.60;99.90;;;;;;5003134;28;20277;-72
2023/04/28 06:24:11;;;;;;;24.52;14.90;;;8.60;99.90;;;;;;5009279;28;20037;-71
2023/04/28 06:26:36;;;;;;;24.20;14.60;;;8.70;99.90;;;;;;5005693;28;20022;-71
2023/04/28 06:29:02;;;;;;;23.55;14.43;;;8.70;99.90;;;;;;4996749;28;20037;-71
2023/04/28 06:31:28;;;;;;;24.23;14.50;;;8.70;99.90;;;;;;5005420;28;20553;-71
2023/04/28 06:33:53;;;;;;;19.30;14.00;;;8.70;99.90;;;;;;4998881;28;20091;-71
2023/04/28 06:36:19;;;;;;;19.63;13.90;;;8.70;99.90;;;;;;5004259;28;20502;-70
2023/04/28 06:38:45;;;;;;;26.70;14.80;;;8.70;99.90;;;;;;5001723;28;20030;-71
2023/04/28 06:41:11;;;;;;;24.02;14.18;;;8.70;99.90;;;;;;4999094;28;20022;-71
2023/04/28 06:43:37;;;;;;;20.38;14.35;;;8.80;99.90;;;;;;5007782;28;20393;-71
2023/04/28 06:46:03;;;;;;;19.55;14.30;;;8.70;99.90;;;;;;4995848;28;20031;-71
2023/04/28 06:48:29;;;;;;;23.33;14.68;;;8.70;99.90;;;;;;4994633;28;20504;-71
2023/04/28 06:50:54;;;;;;;24.23;14.50;;;8.70;99.90;;;;;;4997846;28;20033;-71
2023/04/28 06:53:20;;;;;;;21.83;14.85;;;8.70;99.90;;;;;;4997068;28;20030;-72
2023/04/28 06:55:45;;;;;;;21.38;14.30;;;8.70;99.90;;;;;;5006730;28;20389;-72
2023/04/28 06:58:11;;;;;;;23.23;14.13;;;8.70;99.90;;;;;;5007125;28;20036;-71
2023/04/28 07:00:37;;;;;;;20.90;14.70;;;8.70;99.90;;;;;;5006372;28;20031;-71
2023/04/28 07:03:03;;;;;;;21.85;14.27;;;8.70;99.90;;;;;;5001152;28;20029;-71
2023/04/28 07:05:29;;;;;;;19.52;14.13;;;8.80;99.90;;;;;;5003681;28;20430;-71
2023/04/28 07:07:54;;;;;;;21.55;15.00;;;8.60;99.90;;;;;;5006894;28;20127;-72
2023/04/28 07:10:20;;;;;;;17.08;13.43;;;8.60;99.90;;;;;;4995693;28;20063;-72
2023/04/28 07:12:47;;;;;;;17.95;13.10;;;8.60;99.90;;;;;;4995395;28;20497;-72
2023/04/28 07:15:12;;;;;;;19.52;13.70;;;8.60;99.90;;;;;;5001827;28;20140;-71
2023/04/28 07:17:38;;;;;;;23.60;14.85;;;8.60;99.90;;;;;;5008296;28;20489;-70
2023/04/28 07:20:05;;;;;;;23.80;14.15;;;8.70;99.90;;;;;;5010000;28;20040;-71
2023/04/28 07:22:31;;;;;;;25.95;14.73;;;8.70;99.90;;;;;;5009699;28;20095;-72
2023/04/28 07:24:56;;;;;;;20.83;14.13;;;8.80;99.90;;;;;;5009385;28;20109;-72
2023/04/28 07:27:22;;;;;;;19.65;13.80;;;8.90;99.90;;;;;;5012900;28;20021;-72
2023/04/28 07:29:47;;;;;;;19.73;14.15;;;8.90;99.90;;;;;;5004602;28;20037;-72
2023/04/28 07:32:13;;;;;;;22.95;15.25;;;9.00;99.90;;;;;;5013385;28;20033;-72
2023/04/28 07:34:39;;;;;;;19.45;14.85;;;9.00;99.90;;;;;;5013223;28;20567;-72
2023/04/28 07:37:04;;;;;;;22.67;14.40;;;9.00;99.90;;;;;;5008593;28;20523;-72
2023/04/28 07:39:30;;;;;;;21.30;14.98;;;9.00;99.90;;;;;;5011606;28;20034;-71
2023/04/28 07:41:57;;;;;;;21.98;13.88;;;9.00;99.90;;;;;;5009240;28;20037;-71
2023/04/28 07:44:23;;;;;;;23.10;15.90;;;9.00;99.90;;;;;;5009928;28;20038;-71
2023/04/28 07:46:48;;;;;;;23.95;15.60;;;9.00;99.90;;;;;;5007239;28;20203;-71
2023/04/28 07:49:14;;;;;;;22.48;15.60;;;9.00;99.90;;;;;;5012890;28;20060;-71
2023/04/28 07:51:40;;;;;;;26.25;16.20;;;9.00;99.90;;;;;;5011935;28;20113;-71
2023/04/28 07:54:06;;;;;;;28.33;15.90;;;9.10;99.90;;;;;;5011861;28;20041;-71
2023/04/28 07:56:31;;;;;;;26.48;15.85;;;9.20;99.90;;;;;;5003621;28;20096;-71
2023/04/28 07:58:57;;;;;;;25.70;16.10;;;9.20;99.90;;;;;;5009113;28;20129;-71
2023/04/28 08:01:23;;;;;;;27.00;16.35;;;9.30;99.90;;;;;;5010054;28;20072;-71
2023/04/28 08:03:48;;;;;;;25.67;16.25;;;9.40;99.90;;;;;;5002633;28;20474;-71
2023/04/28 08:06:14;;;;;;;23.63;16.02;;;9.60;99.90;;;;;;5005773;28;20387;-72
2023/04/28 08:08:40;;;;;;;22.25;15.13;;;9.60;99.90;;;;;;5010960;28;20265;-72
2023/04/28 08:11:07;;;;;;;23.55;15.27;;;9.60;99.90;;;;;;5005586;28;20037;-72
2023/04/28 08:13:32;;;;;;;24.42;15.98;;;9.70;99.90;;;;;;5006154;28;20605;-72
2023/04/28 08:16:01;;;;;;;23.35;15.30;;;9.80;99.90;;;;;;5004251;28;20041;-72
2023/04/28 08:18:27;;;;;;;20.52;14.43;;;9.90;99.90;;;;;;5003337;28;20040;-71
2023/04/28 08:20:53;;;;;;;24.92;15.23;;;10.10;99.90;;;;;;5005588;28;20018;-72
2023/04/28 08:23:19;;;;;;;22.05;14.90;;;10.20;99.90;;;;;;5003523;28;20114;-72
2023/04/28 08:25:45;;;;;;;24.13;15.05;;;10.30;99.90;;;;;;5006353;28;20018;-72
2023/04/28 08:28:11;;;;;;;18.90;13.93;;;10.50;99.90;;;;;;4998794;28;20058;-72
2023/04/28 08:30:37;;;;;;;19.67;13.98;;;10.60;99.90;;;;;;5007915;28;20068;-73
2023/04/28 08:33:03;;;;;;;20.83;14.02;;;10.70;99.90;;;;;;4994962;28;20096;-72
2023/04/28 08:35:29;;;;;;;23.42;14.20;;;10.80;99.90;;;;;;5004573;28;20035;-72
2023/04/28 08:37:55;;;;;;;22.80;14.88;;;10.80;99.90;;;;;;5005791;28;20045;-72
2023/04/28 08:40:23;;;;;;;22.65;14.93;;;10.80;99.90;;;;;;4991125;28;20549;-73
2023/04/28 08:42:49;;;;;;;19.77;13.25;;;10.70;99.90;;;;;;5006008;28;20116;-72
2023/04/28 08:45:15;;;;;;;22.75;14.68;;;10.60;99.90;;;;;;5010460;28;20048;-72
2023/04/28 08:47:45;;;;;;;22.30;14.32;;;10.70;99.90;;;;;;5008543;28;20037;-72
2023/04/28 08:50:11;;;;;;;21.25;13.73;;;10.60;99.90;;;;;;5000778;28;20034;-73
2023/04/28 08:52:38;;;;;;;20.83;14.45;;;10.60;99.90;;;;;;5004316;28;20038;-72
2023/04/28 08:55:11;;;;;;;23.23;14.80;;;10.60;99.90;;;;;;4996150;28;20040;-72
2023/04/28 08:57:53;;;;;;;23.98;15.25;;;10.50;99.90;;;;;;5008321;28;20038;-72
2023/04/28 09:00:19;;;;;;;24.13;15.55;;;10.50;99.90;;;;;;5010268;28;20030;-72
2023/04/28 09:02:44;;;;;;;21.42;14.57;;;10.60;99.90;;;;;;5004708;28;20254;-72
2023/04/28 09:05:12;;;;;;;21.00;15.13;;;10.70;99.90;;;;;;5001274;28;20029;-71
2023/04/28 09:07:38;;;;;;;23.15;14.43;;;10.70;99.90;;;;;;5003368;28;20037;-72
2023/04/28 09:10:22;;;;;;;23.08;15.30;;;10.70;99.90;;;;;;5001864;28;20112;-72
2023/04/28 09:12:51;;;;;;;23.60;14.95;;;10.80;99.90;;;;;;4999522;28;20033;-72
2023/04/28 09:15:29;;;;;;;20.02;14.50;;;10.80;99.90;;;;;;5009785;28;20048;-72
2023/04/28 09:17:55;;;;;;;22.85;15.95;;;10.80;99.90;;;;;;4994692;28;20030;-73
2023/04/28 09:20:25;;;;;;;23.45;15.52;;;;;;;;;;5005658;28;20375;-72
2023/04/28 09:22:52;;;;;;;20.75;14.77;;;10.60;99.90;;;;;;5007185;28;20091;-72
2023/04/28 09:25:20;;;;;;;23.48;15.20;;;10.60;99.90;;;;;;5002477;28;20346;-72
2023/04/28 09:27:46;;;;;;;22.75;15.15;;;10.60;99.90;;;;;;5009018;28;20025;-72
2023/04/28 09:30:12;;;;;;;23.58;15.57;;;10.60;99.90;;;;;;4997543;28;20030;-73
2023/04/28 09:32:37;;;;;;;22.90;15.90;;;10.60;99.90;;;;;;4997350;28;20036;-73
2023/04/28 09:35:06;;;;;;;22.50;15.50;;;10.60;99.90;;;;;;5003374;28;20429;-72
2023/04/28 09:37:32;;;;;;;20.92;15.10;;;10.60;99.90;;;;;;4991559;28;20038;-72
2023/04/28 09:40:07;;;;;;;23.67;14.48;;;10.60;99.90;;;;;;5003981;28;20030;-71
2023/04/28 09:42:34;;;;;;;19.48;14.73;;;10.60;99.90;;;;;;4990384;28;20118;-72
2023/04/28 09:45:02;;;;;;;23.38;16.52;;;10.60;99.90;;;;;;5005619;28;20037;-72
2023/04/28 09:47:28;;;;;;;20.00;14.80;;;10.60;99.90;;;;;;4992594;28;20047;-72
2023/04/28 09:49:59;;;;;;;22.63;15.40;;;10.60;99.90;;;;;;5000876;28;20026;-73
2023/04/28 09:52:25;;;;;;;23.35;15.55;;;10.80;99.90;;;;;;5006966;28;20218;-73
2023/04/28 09:54:56;;;;;;;23.75;15.27;;;10.80;99.90;;;;;;5009500;28;20037;-73
2023/04/28 09:57:22;;;;;;;22.60;16.02;;;10.80;99.90;;;;;;5005890;28;20490;-72
2023/04/28 09:59:49;;;;;;;22.55;15.20;;;10.80;99.90;;;;;;4995536;28;20030;-73
2023/04/28 10:02:16;;;;;;;18.30;14.23;;;10.90;99.90;;;;;;4997635;28;20092;-72
2023/04/28 10:04:50;;;;;;;25.23;14.85;;;11.00;99.90;;;;;;4992848;28;20050;-73
2023/04/28 10:07:18;;;;;;;21.70;15.10;;;11.00;99.90;;;;;;5001662;28;20030;-72
2023/04/28 10:09:46;;;;;;;21.83;14.90;;;11.10;99.90;;;;;;5005078;28;20026;-72
2023/04/28 10:12:19;;;;;;;18.90;14.65;;;11.10;99.90;;;;;;5007032;28;20040;-71
2023/04/28 10:14:46;;;;;;;;;;;11.20;99.90;;;;;;5004181;28;20108;-71
2023/04/28 10:17:16;;;;;;;17.70;13.85;;;11.20;99.90;;;;;;5008962;28;19905;-72
2023/04/28 10:19:44;;;;;;;21.45;14.10;;;11.30;99.90;;;;;;5003464;28;20494;-72
2023/04/28 10:22:24;;;;;;;18.98;14.57;;;11.40;99.90;;;;;;5006580;28;20401;-72
2023/04/28 10:25:11;;;;;;;18.60;14.25;;;11.40;99.90;;;;;;5008883;28;20030;-72
2023/04/28 10:27:45;;;;;;;22.70;15.48;;;;;;;;;;4994875;28;20032;-73
2023/04/28 10:30:12;;;;;;;20.08;14.77;;;;;;;;;;4985017;28;20110;-73
2023/04/28 10:32:38;;;;;;;19.10;14.70;;;;;;;;;;4996715;28;20040;-73
2023/04/28 10:35:27;;;;;;;20.50;15.82;;;;;;;;;;4995261;28;20482;-73
2023/04/28 10:38:07;;;;;;;25.77;17.10;;;;;;;;;;4996010;28;20030;-73
2023/04/28 10:40:34;;;;;;;20.90;16.40;;;;;;;;;;4993153;28;20037;-72
2023/04/28 10:43:00;;;;;;;26.13;15.93;;;;;;;;;;4996956;28;20064;-72
2023/04/28 10:45:44;;;;;;;21.25;15.10;;;;;;;;;;5004950;28;20038;-72
2023/04/28 10:48:10;;;;;;;21.05;14.70;;;;;;;;;;5005641;28;20034;-73
2023/04/28 10:50:36;;;;;;;21.08;15.35;;;;;;;;;;4993787;28;20037;-73
2023/04/28 10:53:03;;;;;;;20.83;15.82;;;;;;;;;;4998111;28;20036;-73
2023/04/28 10:55:35;;;;;;;23.60;17.00;;;;;;;;;;5001324;28;20395;-72
2023/04/28 10:58:01;;;;;;;;;;;;;;;;;;4644437;28;10000906;-73
2023/04/28 11:00:31;;;;;;;26.40;16.63;;;;;;;;;;4996248;28;20012;-73
2023/04/28 11:02:57;;;;;;;22.85;17.10;;;;;;;;;;5004566;28;20569;-73
2023/04/28 11:05:23;;;;;;;23.25;16.98;;;;;;;;;;5004300;28;20025;-73
2023/04/28 11:08:21;;;;;;;23.67;17.13;;;;;;;;;;5002733;28;20030;-73
2023/04/28 11:11:05;;;;;;;21.10;16.05;;;;;;;;;;4993185;28;20253;-71
2023/04/28 11:13:33;;;;;;;20.00;16.02;;;;;;;;;;4988199;28;20345;-73
2023/04/28 11:16:06;;;;;;;19.23;15.13;;;;;;;;;;5001271;28;20136;-72
2023/04/28 11:18:52;;;;;;;21.77;17.10;;;;;;;;;;5003159;28;20068;-73
2023/04/28 11:21:18;;;;;;;21.13;17.13;;;;;;;;;;4996730;28;20136;-73
2023/04/28 11:23:45;;;;;;;23.40;16.55;;;;;;;;;;4992636;28;20026;-74
2023/04/28 11:26:11;;;;;;;24.08;16.85;;;;;;;;;;4982457;28;20034;-74
2023/04/28 11:28:46;;;;;;;23.55;16.85;;;;;;;;;;4999288;28;20398;-75
2023/04/28 11:31:12;;;;;;;21.10;15.60;;;;;;;;;;5005155;28;20033;-74
2023/04/28 11:33:39;;;;;;;19.75;15.07;;;;;;;;;;4997907;28;20038;-74
2023/04/28 11:36:05;;;;;;;22.35;17.23;;;12.90;99.90;;;;;;5002804;28;20042;-73
2023/04/28 11:38:43;;;;;;;20.77;16.27;;;13.00;99.90;;;;;;5000912;28;20030;-74
2023/04/28 11:41:08;;;;;;;20.30;15.32;;;13.10;99.90;;;;;;4985788;28;20089;-72
2023/04/28 11:43:35;;;;;;;25.02;15.70;;;13.20;99.90;;;;;;5005068;28;20026;-72
2023/04/28 11:46:00;;;;;;;19.38;14.73;;;13.40;99.90;;;;;;4999874;28;20125;-73
2023/04/28 11:48:26;;;;;;;21.88;15.43;;;13.50;99.90;;;;;;5001107;28;20489;-73
2023/04/28 11:50:52;;;;;;;24.90;16.63;;;13.60;99.90;;;;;;5003608;28;20022;-72
2023/04/28 11:53:19;;;;;;;21.98;15.00;;;13.70;99.90;;;;;;5005709;28;20092;-73
2023/04/28 11:55:44;;;;;;;19.95;15.23;;;13.70;99.90;;;;;;5007615;28;20033;-72
2023/04/28 11:58:22;;;;;;;32.92;15.85;;;13.70;99.90;;;;;;5003302;28;20036;-73
2023/04/28 12:01:14;;;;;;;20.77;15.02;;;13.70;99.90;;;;;;5006487;28;20513;-73
2023/04/28 12:03:43;;;;;;;20.30;14.68;;;13.70;99.90;;;;;;4998891;28;20034;-74
2023/04/28 12:06:09;;;;;;;20.98;14.35;;;13.70;99.90;;;;;;5001484;28;20030;-75
2023/04/28 12:08:35;;;;;;;21.80;15.70;;;13.70;99.90;;;;;;5006129;28;20033;-74
2023/04/28 12:11:12;;;;;;;19.10;15.55;;;13.70;99.90;;;;;;4997350;28;20041;-74
2023/04/28 12:13:38;;;;;;;19.85;14.57;;;13.60;99.90;;;;;;4998190;28;20258;-73
2023/04/28 12:16:08;;;;;;;19.02;14.88;;;13.60;99.90;;;;;;5001505;28;20097;-74
2023/04/28 12:18:38;;;;;;;19.33;14.20;;;13.70;99.90;;;;;;4998009;28;20375;-73
2023/04/28 12:21:18;;;;;;;20.45;16.48;;;13.70;99.90;;;;;;4998369;28;20061;-73
2023/04/28 12:23:44;;;;;;;20.08;14.75;;;13.80;99.90;;;;;;4995384;28;20124;-73
2023/04/28 12:26:10;;;;;;;18.63;15.18;;;13.80;99.90;;;;;;5008257;28;20038;-74
2023/04/28 12:28:39;;;;;;;19.17;14.52;;;13.70;99.90;;;;;;5002212;28;20052;-72
2023/04/28 12:31:07;;;;;;;19.38;15.57;;;13.60;99.90;;;;;;5003718;28;20060;-73
2023/04/28 12:33:36;;;;;;;20.75;15.75;;;13.50;99.90;;;;;;5000395;28;20038;-73
2023/04/28 12:36:03;;;;;;;21.70;16.27;;;13.30;99.90;;;;;;5004021;28;20593;-73
2023/04/28 12:38:29;;;;;;;18.58;14.70;;;13.20;99.90;;;;;;5004979;28;20044;-73
2023/04/28 12:40:55;;;;;;;20.35;16.20;;;13.10;99.90;;;;;;5000553;28;20116;-73
2023/04/28 12:43:22;;;;;;;24.10;17.13;;;13.10;99.90;;;;;;4994038;28;20117;-73
2023/04/28 12:45:48;;;;;;;25.38;16.58;;;13.00;99.90;;;;;;5000279;28;20042;-73